Terminal Aerodrome Forecast
Issued by NWS

Home | Current Version | Previous Version | Text Only | Print | Product List | Glossary On
Versions: 1 2 3 4 5 6 7 8 9 10 11 12 13 14 15 16 17 18 19
000
FTUS43 KICT 302323
TAFCNU
TAF
KCNU 302323Z 3100/3124 31012KT P6SM OVC010
     FM310800 34005KT P6SM OVC010
     FM311300 01004KT P6SM BKN015
     FM311600 VRB03KT P6SM SCT015
     FM312000 05006KT P6SM SCT150=

USA.gov is the U.S. government's official web portal to all federal, state and local government web resources and services.